createdAt,value
2022-08-17T04:03:07.931Z,7.05
2022-08-17T04:05:36.781Z,7.25
2022-08-17T04:08:05.295Z,6.57
2022-08-17T04:10:33.287Z,6.40
2022-08-17T04:13:06.477Z,7.00
2022-08-17T04:15:34.164Z,7.38
2022-08-17T04:18:02.498Z,7.55
2022-08-17T04:20:31.636Z,6.65
2022-08-17T04:23:02.053Z,7.10
2022-08-17T04:25:32.138Z,7.50
2022-08-17T04:28:00.537Z,6.03
2022-08-17T04:30:31.151Z,7.07
2022-08-17T04:33:07.139Z,7.88
2022-08-17T04:35:44.474Z,6.35
2022-08-17T04:38:15.609Z,7.50
2022-08-17T04:41:03.032Z,6.75
2022-08-17T04:43:32.665Z,7.28
2022-08-17T04:46:02.694Z,6.72
2022-08-17T04:48:36.111Z,7.50
2022-08-17T04:51:10.263Z,7.25
2022-08-17T04:53:39.465Z,6.60
2022-08-17T04:56:07.706Z,6.88
2022-08-17T04:58:39.662Z,7.40
2022-08-17T05:01:08.366Z,7.40
2022-08-17T05:03:36.628Z,6.28
2022-08-17T05:06:04.904Z,6.22
2022-08-17T05:08:33.947Z,5.95
2022-08-17T05:11:03.799Z,6.55
2022-08-17T05:13:31.403Z,6.72
2022-08-17T05:16:00.909Z,6.78
2022-08-17T05:18:30.146Z,6.15
2022-08-17T05:21:01.113Z,6.68
2022-08-17T05:23:34.953Z,6.97
2022-08-17T05:26:26.256Z,7.47
2022-08-17T05:28:58.423Z,8.00
2022-08-17T05:31:28.595Z,7.50
2022-08-17T05:33:56.721Z,6.88
2022-08-17T05:36:41.962Z,7.07
2022-08-17T05:39:16.097Z,7.20
2022-08-17T05:41:46.803Z,7.47
2022-08-17T05:44:14.617Z,9.95
2022-08-17T05:46:48.312Z,8.85
2022-08-17T05:49:19.046Z,7.35
2022-08-17T05:52:20.053Z,7.28
2022-08-17T05:55:04.402Z,7.10
2022-08-17T05:57:51.162Z,8.15
2022-08-17T06:00:29.980Z,7.55
2022-08-17T06:03:16.205Z,7.20
2022-08-17T06:05:55.084Z,7.65
2022-08-17T06:08:31.235Z,6.80
2022-08-17T06:11:10.051Z,7.57
2022-08-17T06:14:05.567Z,8.50
2022-08-17T06:16:37.147Z,7.45
2022-08-17T06:19:10.848Z,7.47
2022-08-17T06:21:43.452Z,7.50
2022-08-17T06:24:25.392Z,6.57
2022-08-17T06:26:54.707Z,6.50
2022-08-17T06:29:37.094Z,7.13
2022-08-17T06:32:05.957Z,7.57
2022-08-17T06:34:34.835Z,7.95
2022-08-17T06:37:15.782Z,7.72
2022-08-17T06:39:54.166Z,8.00
2022-08-17T06:43:04.011Z,7.90
2022-08-17T06:45:25.808Z,6.50
2022-08-17T06:48:00.620Z,6.95
2022-08-17T06:50:35.865Z,6.70
2022-08-17T06:53:11.297Z,6.13
2022-08-17T06:55:46.531Z,6.22
2022-08-17T06:58:16.882Z,6.47
2022-08-17T07:00:48.542Z,7.25
2022-08-17T07:03:27.953Z,5.97
2022-08-17T07:05:59.778Z,6.25
2022-08-17T07:08:35.627Z,7.45
2022-08-17T07:11:07.742Z,6.18
2022-08-17T07:13:44.422Z,6.95
2022-08-17T07:16:25.740Z,6.55
2022-08-17T07:18:55.021Z,6.03
2022-08-17T07:21:41.322Z,5.93
2022-08-17T07:24:29.520Z,5.82
2022-08-17T07:27:07.341Z,5.72
2022-08-17T07:29:40.794Z,5.53
2022-08-17T07:32:12.266Z,7.07
2022-08-17T07:35:11.155Z,6.03
2022-08-17T07:37:43.409Z,6.05
2022-08-17T07:40:22.073Z,5.75
2022-08-17T07:43:05.113Z,6.35
2022-08-17T07:46:08.848Z,6.13
2022-08-17T07:48:39.654Z,6.30
2022-08-17T07:51:17.501Z,6.90
2022-08-17T07:53:45.519Z,6.10
2022-08-17T07:56:34.829Z,5.53
2022-08-17T07:59:15.981Z,5.43
2022-08-17T08:01:48.692Z,5.22
2022-08-17T08:07:28.519Z,5.15
2022-08-17T08:10:08.626Z,5.38
2022-08-17T08:12:38.395Z,4.63
2022-08-17T08:15:18.635Z,5.32
2022-08-17T08:17:50.039Z,5.40
2022-08-17T08:20:51.723Z,5.28
2022-08-17T08:23:18.683Z,5.30
2022-08-17T08:25:57.274Z,6.25
2022-08-17T08:28:30.821Z,5.25
2022-08-17T08:31:06.500Z,5.25
2022-08-17T08:33:45.621Z,5.18
2022-08-17T08:37:12.583Z,5.88
2022-08-17T08:39:27.855Z,6.75
2022-08-17T08:42:07.753Z,6.10
2022-08-17T08:44:59.494Z,6.03
2022-08-17T08:47:51.041Z,4.90
2022-08-17T08:50:36.953Z,5.50
2022-08-17T08:53:21.201Z,5.32
2022-08-17T08:55:54.135Z,5.88
2022-08-17T08:58:42.005Z,5.97
2022-08-17T09:01:22.074Z,5.60
2022-08-17T09:04:20.026Z,4.88
2022-08-17T09:07:00.475Z,4.95
2022-08-17T09:09:43.486Z,4.20
2022-08-17T09:12:21.329Z,4.72
2022-08-17T09:14:59.610Z,4.57
2022-08-17T09:17:37.445Z,4.85
2022-08-17T09:20:28.222Z,4.15
2022-08-17T09:23:02.806Z,4.13
2022-08-17T09:25:43.142Z,4.68
2022-08-17T09:28:19.317Z,6.03
2022-08-17T09:30:50.834Z,4.70
2022-08-17T09:33:26.186Z,5.22
2022-08-17T09:35:59.955Z,4.93
2022-08-17T09:38:33.866Z,4.93
2022-08-17T09:41:12.574Z,5.43
2022-08-17T09:43:47.940Z,5.45
2022-08-17T09:46:20.265Z,5.47
2022-08-17T09:48:55.566Z,5.05
2022-08-17T09:51:31.370Z,5.55
2022-08-17T09:54:20.962Z,4.85
2022-08-17T09:57:25.827Z,4.63
2022-08-17T09:59:58.378Z,5.50
2022-08-17T10:02:44.841Z,6.20
2022-08-17T10:05:17.873Z,5.40
2022-08-17T10:07:55.945Z,5.72
2022-08-17T10:10:30.110Z,5.90
2022-08-17T10:13:06.781Z,5.20
2022-08-17T10:15:50.096Z,4.80
2022-08-17T10:18:33.377Z,5.20
2022-08-17T10:21:21.767Z,5.22
2022-08-17T10:24:11.588Z,5.25
2022-08-17T10:26:56.104Z,4.90
2022-08-17T10:29:49.242Z,4.50
2022-08-17T10:32:26.517Z,4.93
2022-08-17T10:35:30.115Z,5.20
2022-08-17T10:38:26.008Z,4.70
2022-08-17T10:40:58.729Z,4.95
2022-08-17T10:43:38.342Z,4.40
2022-08-17T10:46:31.073Z,5.00
2022-08-17T10:49:25.257Z,5.63
2022-08-17T10:51:55.223Z,3.78
2022-08-17T10:54:38.588Z,4.28
2022-08-17T10:57:37.980Z,4.40
2022-08-17T11:00:36.062Z,4.65
2022-08-17T11:03:17.765Z,4.05
2022-08-17T11:05:59.037Z,3.78
2022-08-17T11:08:46.986Z,4.15
2022-08-17T11:11:39.775Z,4.55
2022-08-17T11:14:23.877Z,4.57
2022-08-17T11:17:09.055Z,4.00
2022-08-17T11:19:55.674Z,3.95
2022-08-17T11:22:43.113Z,4.70
2022-08-17T11:25:16.078Z,3.33
2022-08-17T11:27:45.668Z,3.50
2022-08-17T11:30:16.780Z,4.32
2022-08-17T11:32:53.206Z,4.13
2022-08-17T11:35:38.756Z,3.28
2022-08-17T11:38:17.708Z,4.22
2022-08-17T11:41:10.114Z,4.25
2022-08-17T11:43:57.254Z,3.90
2022-08-17T11:46:57.927Z,3.88
2022-08-17T11:49:55.190Z,4.45
2022-08-17T11:52:46.017Z,4.00
2022-08-17T11:55:50.651Z,4.65
2022-08-17T11:58:38.115Z,3.83
2022-08-17T12:01:08.155Z,3.90
2022-08-17T12:03:53.958Z,4.05
2022-08-17T12:06:31.578Z,3.95
2022-08-17T12:09:08.081Z,3.70
2022-08-17T12:11:55.575Z,4.25
2022-08-17T12:15:08.499Z,3.35
2022-08-17T12:17:39.591Z,3.75
2022-08-17T12:20:15.621Z,5.18
2022-08-17T12:22:56.818Z,3.85
2022-08-17T12:25:35.193Z,4.05
2022-08-17T12:28:06.631Z,4.05
2022-08-17T12:30:38.108Z,4.18
2022-08-17T12:33:25.460Z,4.10
2022-08-17T12:36:00.209Z,4.15
2022-08-17T12:38:32.681Z,3.95
2022-08-17T12:41:25.428Z,3.55
2022-08-17T12:44:03.173Z,3.80
2022-08-17T12:46:34.855Z,3.65
2022-08-17T12:49:14.039Z,3.53
2022-08-17T12:51:46.509Z,3.45
2022-08-17T12:54:29.180Z,3.60
2022-08-17T12:57:02.076Z,3.53
2022-08-17T12:59:33.078Z,4.25
2022-08-17T13:02:01.931Z,3.75
2022-08-17T13:04:29.974Z,3.33
2022-08-17T13:06:59.824Z,3.60
2022-08-17T13:09:40.058Z,3.88
2022-08-17T13:12:09.586Z,4.03
2022-08-17T13:14:37.333Z,4.35
2022-08-17T13:17:11.118Z,3.95
2022-08-17T13:19:49.285Z,3.58
2022-08-17T13:22:18.213Z,4.05
2022-08-17T13:24:54.240Z,3.22
2022-08-17T13:27:26.032Z,3.28
2022-08-17T13:29:57.204Z,3.63
2022-08-17T13:32:41.256Z,4.20
2022-08-17T13:35:50.238Z,3.53
2022-08-17T13:38:40.378Z,3.53
2022-08-17T13:41:08.741Z,4.15
2022-08-17T13:43:45.470Z,3.67
2022-08-17T13:46:20.954Z,3.70
2022-08-17T13:48:59.262Z,3.40
2022-08-17T13:51:36.315Z,3.88
2022-08-17T13:54:07.704Z,3.45
2022-08-17T13:56:41.575Z,3.47
2022-08-17T13:59:14.408Z,4.07
2022-08-17T14:01:47.446Z,3.55
2022-08-17T14:04:23.206Z,3.78
2022-08-17T14:06:54.303Z,3.38
2022-08-17T14:09:24.668Z,3.65
2022-08-17T14:11:54.001Z,3.75
2022-08-17T14:14:35.459Z,3.58
2022-08-17T14:17:12.592Z,3.38
2022-08-17T14:19:41.131Z,3.90
2022-08-17T14:22:15.966Z,4.68
2022-08-17T14:24:45.030Z,4.13
2022-08-17T14:27:13.357Z,3.60
2022-08-17T14:29:42.509Z,3.45
2022-08-17T14:32:18.777Z,3.72
2022-08-17T14:34:49.443Z,3.10
2022-08-17T14:37:18.085Z,4.03
2022-08-17T14:39:46.113Z,3.30
2022-08-17T14:42:15.483Z,3.70
2022-08-17T14:44:44.861Z,3.00
2022-08-17T14:47:15.805Z,3.63
2022-08-17T14:49:47.736Z,3.55
2022-08-17T14:52:21.950Z,3.50
2022-08-17T14:54:51.533Z,3.72
2022-08-17T14:57:25.203Z,3.90
2022-08-17T15:00:03.763Z,3.97
2022-08-17T15:02:31.646Z,4.53
2022-08-17T15:05:01.658Z,3.70
2022-08-17T15:07:31.009Z,4.22
2022-08-17T15:10:00.390Z,2.70
2022-08-17T15:12:33.147Z,3.03
2022-08-17T15:15:04.376Z,4.13
2022-08-17T15:17:54.583Z,4.00
2022-08-17T15:20:23.863Z,5.60
2022-08-17T15:22:54.943Z,9.48
2022-08-17T15:25:23.122Z,5.63
2022-08-17T15:27:51.870Z,3.97
2022-08-17T15:30:22.342Z,3.60
2022-08-17T15:32:54.878Z,2.97
2022-08-17T15:35:27.297Z,2.90
2022-08-17T15:37:57.591Z,3.78
2022-08-17T15:40:25.262Z,3.38
2022-08-17T15:42:53.139Z,3.50
2022-08-17T15:45:26.395Z,3.33
2022-08-17T15:47:54.080Z,3.75
2022-08-17T15:50:22.710Z,3.88
2022-08-17T15:52:56.902Z,3.95
2022-08-17T15:55:25.070Z,4.55
2022-08-17T15:57:53.190Z,3.78
2022-08-17T16:00:28.060Z,4.15
2022-08-17T16:03:46.006Z,4.13
2022-08-17T16:05:46.335Z,3.90
2022-08-17T16:08:20.616Z,3.75
2022-08-17T16:10:49.647Z,4.45
2022-08-17T16:13:19.355Z,3.72
2022-08-17T16:15:57.315Z,4.40
2022-08-17T16:18:32.011Z,4.45
2022-08-17T16:21:23.974Z,4.60
2022-08-17T16:23:58.550Z,4.60
2022-08-17T16:26:27.433Z,4.13
2022-08-17T16:28:56.354Z,3.55
2022-08-17T16:31:27.648Z,3.75
2022-08-17T16:34:16.400Z,4.25
2022-08-17T16:36:55.456Z,4.43
2022-08-17T16:39:27.444Z,4.20
2022-08-17T16:41:57.371Z,3.88
2022-08-17T16:44:32.375Z,4.00
2022-08-17T16:47:01.849Z,4.07
2022-08-17T16:49:36.735Z,4.55
2022-08-17T16:52:12.503Z,3.78
2022-08-17T16:54:43.797Z,3.92
2022-08-17T16:57:12.227Z,4.07
2022-08-17T16:59:42.561Z,3.50
2022-08-17T17:02:15.081Z,4.05
2022-08-17T17:04:51.311Z,3.72
2022-08-17T17:07:34.792Z,3.83
2022-08-17T17:10:08.575Z,3.58
2022-08-17T17:13:02.418Z,3.15
2022-08-17T17:15:33.462Z,3.47
2022-08-17T17:18:07.296Z,3.28
2022-08-17T17:20:45.661Z,3.42
2022-08-17T17:23:29.028Z,3.67
2022-08-17T17:26:10.166Z,3.60
2022-08-17T17:28:44.176Z,2.95
2022-08-17T17:31:17.667Z,3.70
2022-08-17T17:33:50.750Z,3.70
2022-08-17T17:36:25.887Z,4.30
2022-08-17T17:38:59.149Z,3.45
2022-08-17T17:41:34.041Z,4.22
2022-08-17T17:44:06.094Z,3.33
2022-08-17T17:46:39.312Z,4.00
2022-08-17T17:49:11.075Z,4.82
2022-08-17T17:52:07.744Z,7.05
2022-08-17T17:54:51.420Z,4.05
2022-08-17T17:57:29.693Z,4.18
2022-08-17T18:00:04.728Z,3.35
2022-08-17T18:02:51.518Z,3.72
2022-08-17T18:05:49.426Z,3.80
2022-08-17T18:08:34.354Z,5.18
2022-08-17T18:11:23.953Z,5.00
2022-08-17T18:14:06.132Z,4.00
2022-08-17T18:16:35.675Z,5.57
2022-08-17T18:19:03.329Z,5.15
2022-08-17T18:21:39.666Z,4.00
2022-08-17T18:24:10.393Z,4.10
2022-08-17T18:26:46.633Z,4.10
2022-08-17T18:29:31.423Z,4.10
2022-08-17T18:32:23.598Z,4.00
2022-08-17T18:34:56.075Z,4.45
2022-08-17T18:37:46.935Z,5.10
2022-08-17T18:40:35.240Z,4.72
2022-08-17T18:43:24.862Z,4.03
2022-08-17T18:45:54.981Z,4.70
2022-08-17T18:48:32.894Z,4.70
2022-08-17T18:51:06.049Z,5.75
2022-08-17T18:53:40.186Z,4.35
2022-08-17T18:56:24.015Z,5.13
2022-08-17T18:58:58.112Z,4.90
2022-08-17T19:01:46.944Z,4.88
2022-08-17T19:04:34.651Z,4.50
2022-08-17T19:07:11.706Z,4.63
2022-08-17T19:09:45.502Z,5.05
2022-08-17T19:12:27.184Z,4.30
2022-08-17T19:14:57.481Z,5.10
2022-08-17T19:17:33.077Z,4.57
2022-08-17T19:20:06.051Z,4.88
2022-08-17T19:22:45.306Z,5.28
2022-08-17T19:25:19.739Z,4.45
2022-08-17T19:27:57.446Z,4.78
2022-08-17T19:30:26.342Z,4.57
2022-08-17T19:32:55.821Z,4.60
2022-08-17T19:35:28.181Z,4.68
2022-08-17T19:38:05.806Z,4.40
2022-08-17T19:40:58.465Z,5.43
2022-08-17T19:43:36.480Z,5.00
2022-08-17T19:46:15.958Z,5.20
2022-08-17T19:48:52.114Z,4.70
2022-08-17T19:51:28.035Z,5.10
2022-08-17T19:54:06.008Z,5.55
2022-08-17T19:56:47.407Z,5.22
2022-08-17T19:59:25.625Z,4.43
2022-08-17T20:01:58.165Z,4.80
2022-08-17T20:04:36.891Z,4.80
2022-08-17T20:07:10.491Z,4.97
2022-08-17T20:09:41.713Z,5.10
2022-08-17T20:12:14.752Z,4.82
2022-08-17T20:14:55.752Z,4.68
2022-08-17T20:17:26.028Z,4.45
2022-08-17T20:20:04.045Z,5.13
2022-08-17T20:22:46.779Z,5.00
2022-08-17T20:25:29.995Z,4.97
2022-08-17T20:28:05.601Z,5.47
2022-08-17T20:30:38.239Z,5.18
2022-08-17T20:33:08.257Z,5.00
2022-08-17T20:35:41.350Z,4.75
2022-08-17T20:38:11.362Z,5.40
2022-08-17T20:41:02.607Z,6.10
2022-08-17T20:43:51.011Z,8.00
2022-08-17T20:46:50.131Z,5.95
2022-08-17T20:49:27.517Z,6.60
2022-08-17T20:52:07.597Z,5.53
2022-08-17T20:54:49.534Z,4.63
2022-08-17T20:57:47.332Z,4.18
2022-08-17T21:00:47.623Z,5.00
2022-08-17T21:03:49.147Z,5.88
2022-08-17T21:06:23.288Z,12.13
2022-08-17T21:08:55.218Z,5.97
2022-08-17T21:12:02.416Z,5.65
2022-08-17T21:14:44.294Z,5.47
2022-08-17T21:17:40.484Z,4.35
2022-08-17T21:20:23.899Z,5.13
2022-08-17T21:23:05.212Z,4.63
2022-08-17T21:25:52.650Z,4.95
2022-08-17T21:28:34.091Z,4.85
2022-08-17T21:31:08.581Z,5.47
2022-08-17T21:33:39.950Z,4.70
2022-08-17T21:36:27.144Z,4.90
2022-08-17T21:39:03.362Z,5.32
2022-08-17T21:41:34.369Z,5.28
2022-08-17T21:44:12.580Z,4.65
2022-08-17T21:46:43.005Z,4.78
2022-08-17T21:49:18.863Z,5.00
2022-08-17T21:51:50.263Z,5.65
2022-08-17T21:54:27.010Z,5.68
2022-08-17T21:56:55.567Z,5.18
2022-08-17T21:59:27.348Z,5.70
2022-08-17T22:01:57.775Z,5.22
2022-08-17T22:04:30.028Z,4.57
2022-08-17T22:06:59.803Z,5.15
2022-08-17T22:09:31.870Z,5.60
2022-08-17T22:12:05.396Z,5.50
2022-08-17T22:14:51.827Z,5.22
2022-08-17T22:17:24.027Z,5.15
2022-08-17T22:19:56.229Z,5.18
2022-08-17T22:22:29.315Z,4.97
2022-08-17T22:24:59.258Z,4.85
2022-08-17T22:27:48.689Z,5.18
2022-08-17T22:30:29.379Z,5.22
2022-08-17T22:32:57.452Z,5.10
2022-08-17T22:35:43.648Z,5.70
2022-08-17T22:38:33.722Z,4.95
2022-08-17T22:41:21.790Z,5.70
2022-08-17T22:43:50.065Z,5.45
2022-08-17T22:46:21.927Z,5.38
2022-08-17T22:48:52.188Z,5.78
2022-08-17T22:51:23.307Z,5.82
2022-08-17T22:54:10.970Z,5.53
2022-08-17T22:56:56.829Z,6.38
2022-08-17T22:59:43.843Z,4.93
